sensor_id;sensor_type;location;lat;lon;timestamp;P1;durP1;ratioP1;P2;durP2;ratioP2
17648;SDS011;8943;51.110;-4.158;2023-06-22T00:00:40;22.83;;;6.57;;
17648;SDS011;8943;51.110;-4.158;2023-06-22T00:03:09;33.20;;;5.70;;
17648;SDS011;8943;51.110;-4.158;2023-06-22T00:05:37;4.23;;;2.77;;
17648;SDS011;8943;51.110;-4.158;2023-06-22T00:08:05;6.17;;;3.80;;
17648;SDS011;8943;51.110;-4.158;2023-06-22T00:10:35;13.33;;;5.20;;
17648;SDS011;8943;51.110;-4.158;2023-06-22T00:13:04;8.43;;;4.40;;
17648;SDS011;8943;51.110;-4.158;2023-06-22T00:15:33;6.37;;;3.67;;
17648;SDS011;8943;51.110;-4.158;2023-06-22T00:18:01;7.53;;;3.53;;
17648;SDS011;8943;51.110;-4.158;2023-06-22T00:20:30;5.87;;;3.30;;
17648;SDS011;8943;51.110;-4.158;2023-06-22T00:22:59;5.57;;;3.33;;
17648;SDS011;8943;51.110;-4.158;2023-06-22T00:25:28;3.33;;;2.90;;
17648;SDS011;8943;51.110;-4.158;2023-06-22T00:27:57;4.80;;;3.37;;
17648;SDS011;8943;51.110;-4.158;2023-06-22T00:30:26;10.23;;;3.93;;
17648;SDS011;8943;51.110;-4.158;2023-06-22T00:32:54;4.30;;;3.73;;
17648;SDS011;8943;51.110;-4.158;2023-06-22T00:35:23;4.07;;;3.57;;
17648;SDS011;8943;51.110;-4.158;2023-06-22T00:37:55;4.00;;;3.60;;
17648;SDS011;8943;51.110;-4.158;2023-06-22T00:40:28;4.53;;;3.53;;
17648;SDS011;8943;51.110;-4.158;2023-06-22T00:43:00;5.53;;;3.13;;
17648;SDS011;8943;51.110;-4.158;2023-06-22T00:45:28;4.77;;;3.40;;
17648;SDS011;8943;51.110;-4.158;2023-06-22T00:47:57;6.50;;;3.33;;
17648;SDS011;8943;51.110;-4.158;2023-06-22T00:50:26;3.67;;;3.23;;
17648;SDS011;8943;51.110;-4.158;2023-06-22T00:53:01;4.50;;;3.33;;
17648;SDS011;8943;51.110;-4.158;2023-06-22T00:55:35;4.43;;;3.23;;
17648;SDS011;8943;51.110;-4.158;2023-06-22T00:58:07;4.90;;;3.40;;
17648;SDS011;8943;51.110;-4.158;2023-06-22T01:00:37;4.07;;;3.67;;
17648;SDS011;8943;51.110;-4.158;2023-06-22T01:03:06;4.63;;;3.60;;
17648;SDS011;8943;51.110;-4.158;2023-06-22T01:05:37;5.53;;;3.30;;
17648;SDS011;8943;51.110;-4.158;2023-06-22T01:08:10;5.67;;;3.23;;
17648;SDS011;8943;51.110;-4.158;2023-06-22T01:10:44;3.80;;;3.37;;
17648;SDS011;8943;51.110;-4.158;2023-06-22T01:13:21;5.53;;;3.40;;
17648;SDS011;8943;51.110;-4.158;2023-06-22T01:15:58;7.70;;;3.40;;
17648;SDS011;8943;51.110;-4.158;2023-06-22T01:18:31;3.87;;;3.13;;
17648;SDS011;8943;51.110;-4.158;2023-06-22T01:21:03;4.97;;;4.20;;
17648;SDS011;8943;51.110;-4.158;2023-06-22T01:23:46;4.17;;;3.77;;
17648;SDS011;8943;51.110;-4.158;2023-06-22T01:26:22;10.07;;;4.20;;
17648;SDS011;8943;51.110;-4.158;2023-06-22T01:28:58;5.83;;;3.50;;
17648;SDS011;8943;51.110;-4.158;2023-06-22T01:31:27;5.73;;;4.30;;
17648;SDS011;8943;51.110;-4.158;2023-06-22T01:33:58;4.00;;;3.60;;
17648;SDS011;8943;51.110;-4.158;2023-06-22T01:36:28;10.10;;;3.73;;
17648;SDS011;8943;51.110;-4.158;2023-06-22T01:39:01;6.17;;;3.70;;
17648;SDS011;8943;51.110;-4.158;2023-06-22T01:41:33;6.03;;;3.80;;
17648;SDS011;8943;51.110;-4.158;2023-06-22T01:44:05;6.90;;;3.63;;
17648;SDS011;8943;51.110;-4.158;2023-06-22T01:46:35;5.00;;;3.63;;
17648;SDS011;8943;51.110;-4.158;2023-06-22T01:49:05;5.03;;;3.50;;
17648;SDS011;8943;51.110;-4.158;2023-06-22T01:51:34;7.77;;;4.57;;
17648;SDS011;8943;51.110;-4.158;2023-06-22T01:54:02;8.07;;;3.37;;
17648;SDS011;8943;51.110;-4.158;2023-06-22T01:56:30;6.33;;;3.80;;
17648;SDS011;8943;51.110;-4.158;2023-06-22T01:59:01;5.30;;;3.83;;
17648;SDS011;8943;51.110;-4.158;2023-06-22T02:01:42;5.07;;;3.80;;
17648;SDS011;8943;51.110;-4.158;2023-06-22T02:04:18;3.93;;;3.43;;
17648;SDS011;8943;51.110;-4.158;2023-06-22T02:06:49;7.63;;;3.40;;
17648;SDS011;8943;51.110;-4.158;2023-06-22T02:09:23;5.20;;;3.37;;
17648;SDS011;8943;51.110;-4.158;2023-06-22T02:11:54;7.20;;;3.80;;
17648;SDS011;8943;51.110;-4.158;2023-06-22T02:14:25;6.07;;;3.77;;
17648;SDS011;8943;51.110;-4.158;2023-06-22T02:16:55;5.47;;;3.50;;
17648;SDS011;8943;51.110;-4.158;2023-06-22T02:19:26;6.83;;;3.73;;
17648;SDS011;8943;51.110;-4.158;2023-06-22T02:21:59;6.13;;;4.10;;
17648;SDS011;8943;51.110;-4.158;2023-06-22T02:24:28;4.30;;;3.90;;
17648;SDS011;8943;51.110;-4.158;2023-06-22T02:26:58;5.57;;;4.70;;
17648;SDS011;8943;51.110;-4.158;2023-06-22T02:29:28;5.60;;;4.43;;
17648;SDS011;8943;51.110;-4.158;2023-06-22T02:31:57;4.43;;;4.03;;
17648;SDS011;8943;51.110;-4.158;2023-06-22T02:34:25;6.20;;;4.20;;
17648;SDS011;8943;51.110;-4.158;2023-06-22T02:36:55;4.90;;;4.00;;
17648;SDS011;8943;51.110;-4.158;2023-06-22T02:39:23;6.67;;;3.93;;
17648;SDS011;8943;51.110;-4.158;2023-06-22T02:41:53;5.67;;;3.93;;
17648;SDS011;8943;51.110;-4.158;2023-06-22T02:44:22;4.83;;;3.70;;
17648;SDS011;8943;51.110;-4.158;2023-06-22T02:46:52;6.83;;;3.67;;
17648;SDS011;8943;51.110;-4.158;2023-06-22T02:49:20;4.57;;;3.47;;
17648;SDS011;8943;51.110;-4.158;2023-06-22T02:51:49;4.70;;;3.30;;
17648;SDS011;8943;51.110;-4.158;2023-06-22T02:54:17;4.83;;;3.50;;
17648;SDS011;8943;51.110;-4.158;2023-06-22T02:56:46;5.60;;;3.63;;
17648;SDS011;8943;51.110;-4.158;2023-06-22T02:59:17;5.80;;;3.50;;
17648;SDS011;8943;51.110;-4.158;2023-06-22T03:01:52;7.00;;;3.90;;
17648;SDS011;8943;51.110;-4.158;2023-06-22T03:04:20;5.97;;;3.70;;
17648;SDS011;8943;51.110;-4.158;2023-06-22T03:06:48;5.27;;;3.73;;
17648;SDS011;8943;51.110;-4.158;2023-06-22T03:09:17;4.47;;;3.53;;
17648;SDS011;8943;51.110;-4.158;2023-06-22T03:11:46;8.17;;;3.80;;
17648;SDS011;8943;51.110;-4.158;2023-06-22T03:14:14;5.83;;;3.37;;
17648;SDS011;8943;51.110;-4.158;2023-06-22T03:16:43;6.03;;;3.50;;
17648;SDS011;8943;51.110;-4.158;2023-06-22T03:19:13;4.03;;;3.13;;
17648;SDS011;8943;51.110;-4.158;2023-06-22T03:21:41;5.40;;;3.37;;
17648;SDS011;8943;51.110;-4.158;2023-06-22T03:24:09;5.03;;;3.20;;
17648;SDS011;8943;51.110;-4.158;2023-06-22T03:26:37;6.17;;;3.90;;
17648;SDS011;8943;51.110;-4.158;2023-06-22T03:29:06;4.27;;;3.60;;
17648;SDS011;8943;51.110;-4.158;2023-06-22T03:31:34;4.97;;;3.47;;
17648;SDS011;8943;51.110;-4.158;2023-06-22T03:34:03;5.70;;;3.27;;
17648;SDS011;8943;51.110;-4.158;2023-06-22T03:36:32;4.20;;;3.27;;
17648;SDS011;8943;51.110;-4.158;2023-06-22T03:39:01;4.73;;;3.70;;
17648;SDS011;8943;51.110;-4.158;2023-06-22T03:41:30;5.17;;;3.60;;
17648;SDS011;8943;51.110;-4.158;2023-06-22T03:43:59;6.27;;;4.47;;
17648;SDS011;8943;51.110;-4.158;2023-06-22T03:46:27;4.10;;;3.70;;
17648;SDS011;8943;51.110;-4.158;2023-06-22T03:48:55;5.53;;;4.47;;
17648;SDS011;8943;51.110;-4.158;2023-06-22T03:51:24;9.27;;;4.97;;
17648;SDS011;8943;51.110;-4.158;2023-06-22T03:53:54;7.40;;;3.90;;
17648;SDS011;8943;51.110;-4.158;2023-06-22T03:56:22;5.60;;;3.87;;
17648;SDS011;8943;51.110;-4.158;2023-06-22T03:58:50;5.33;;;3.53;;
17648;SDS011;8943;51.110;-4.158;2023-06-22T04:01:18;4.93;;;3.70;;
17648;SDS011;8943;51.110;-4.158;2023-06-22T04:03:47;6.10;;;4.53;;
17648;SDS011;8943;51.110;-4.158;2023-06-22T04:06:16;4.67;;;3.67;;
17648;SDS011;8943;51.110;-4.158;2023-06-22T04:08:45;10.90;;;4.30;;
17648;SDS011;8943;51.110;-4.158;2023-06-22T04:11:19;5.10;;;3.67;;
17648;SDS011;8943;51.110;-4.158;2023-06-22T04:13:48;7.37;;;4.60;;
17648;SDS011;8943;51.110;-4.158;2023-06-22T04:16:18;7.47;;;4.13;;
17648;SDS011;8943;51.110;-4.158;2023-06-22T04:18:46;5.90;;;3.70;;
17648;SDS011;8943;51.110;-4.158;2023-06-22T04:21:14;4.70;;;4.00;;
17648;SDS011;8943;51.110;-4.158;2023-06-22T04:23:42;6.27;;;3.73;;
17648;SDS011;8943;51.110;-4.158;2023-06-22T04:26:12;8.50;;;3.87;;
17648;SDS011;8943;51.110;-4.158;2023-06-22T04:28:43;6.67;;;3.97;;
17648;SDS011;8943;51.110;-4.158;2023-06-22T04:31:18;7.43;;;3.60;;
17648;SDS011;8943;51.110;-4.158;2023-06-22T04:33:46;5.90;;;4.00;;
17648;SDS011;8943;51.110;-4.158;2023-06-22T04:36:15;4.23;;;3.83;;
17648;SDS011;8943;51.110;-4.158;2023-06-22T04:38:43;4.97;;;3.90;;
17648;SDS011;8943;51.110;-4.158;2023-06-22T04:41:11;4.87;;;3.60;;
17648;SDS011;8943;51.110;-4.158;2023-06-22T04:43:52;4.80;;;4.00;;
17648;SDS011;8943;51.110;-4.158;2023-06-22T04:46:24;7.03;;;3.43;;
17648;SDS011;8943;51.110;-4.158;2023-06-22T04:48:52;8.60;;;4.23;;
17648;SDS011;8943;51.110;-4.158;2023-06-22T04:51:21;8.67;;;4.67;;
17648;SDS011;8943;51.110;-4.158;2023-06-22T04:53:56;5.70;;;3.47;;
17648;SDS011;8943;51.110;-4.158;2023-06-22T04:56:27;4.27;;;3.67;;
17648;SDS011;8943;51.110;-4.158;2023-06-22T04:58:57;4.10;;;3.60;;
17648;SDS011;8943;51.110;-4.158;2023-06-22T05:01:25;11.57;;;4.67;;
17648;SDS011;8943;51.110;-4.158;2023-06-22T05:03:54;4.60;;;3.50;;
17648;SDS011;8943;51.110;-4.158;2023-06-22T05:06:23;3.70;;;3.13;;
17648;SDS011;8943;51.110;-4.158;2023-06-22T05:08:53;5.10;;;4.00;;
17648;SDS011;8943;51.110;-4.158;2023-06-22T05:11:24;5.67;;;3.30;;
17648;SDS011;8943;51.110;-4.158;2023-06-22T05:13:53;6.87;;;3.47;;
17648;SDS011;8943;51.110;-4.158;2023-06-22T05:16:24;7.00;;;3.50;;
17648;SDS011;8943;51.110;-4.158;2023-06-22T05:18:52;6.80;;;3.83;;
17648;SDS011;8943;51.110;-4.158;2023-06-22T05:21:22;4.10;;;3.70;;
17648;SDS011;8943;51.110;-4.158;2023-06-22T05:23:51;7.40;;;3.57;;
17648;SDS011;8943;51.110;-4.158;2023-06-22T05:26:22;5.27;;;3.57;;
17648;SDS011;8943;51.110;-4.158;2023-06-22T05:28:50;6.00;;;3.73;;
17648;SDS011;8943;51.110;-4.158;2023-06-22T05:31:19;6.93;;;3.40;;
17648;SDS011;8943;51.110;-4.158;2023-06-22T05:33:51;3.97;;;3.10;;
17648;SDS011;8943;51.110;-4.158;2023-06-22T05:36:20;6.67;;;3.97;;
17648;SDS011;8943;51.110;-4.158;2023-06-22T05:38:51;5.93;;;3.43;;
17648;SDS011;8943;51.110;-4.158;2023-06-22T05:41:20;6.23;;;3.73;;
17648;SDS011;8943;51.110;-4.158;2023-06-22T05:43:49;4.30;;;3.90;;
17648;SDS011;8943;51.110;-4.158;2023-06-22T05:46:18;3.60;;;3.30;;
17648;SDS011;8943;51.110;-4.158;2023-06-22T05:48:48;5.33;;;3.40;;
17648;SDS011;8943;51.110;-4.158;2023-06-22T05:51:22;9.27;;;5.17;;
17648;SDS011;8943;51.110;-4.158;2023-06-22T05:53:51;5.03;;;4.13;;
17648;SDS011;8943;51.110;-4.158;2023-06-22T05:56:19;7.60;;;4.13;;
17648;SDS011;8943;51.110;-4.158;2023-06-22T05:58:48;4.43;;;3.93;;
17648;SDS011;8943;51.110;-4.158;2023-06-22T06:01:23;5.80;;;3.70;;
17648;SDS011;8943;51.110;-4.158;2023-06-22T06:04:04;5.10;;;3.77;;
17648;SDS011;8943;51.110;-4.158;2023-06-22T06:06:36;5.90;;;3.77;;
17648;SDS011;8943;51.110;-4.158;2023-06-22T06:09:05;5.60;;;3.50;;
17648;SDS011;8943;51.110;-4.158;2023-06-22T06:11:34;4.50;;;3.53;;
17648;SDS011;8943;51.110;-4.158;2023-06-22T06:14:22;7.53;;;4.20;;
17648;SDS011;8943;51.110;-4.158;2023-06-22T06:17:04;5.73;;;3.90;;
17648;SDS011;8943;51.110;-4.158;2023-06-22T06:19:40;5.10;;;4.00;;
17648;SDS011;8943;51.110;-4.158;2023-06-22T06:22:11;5.37;;;3.77;;
17648;SDS011;8943;51.110;-4.158;2023-06-22T06:24:40;6.87;;;4.07;;
17648;SDS011;8943;51.110;-4.158;2023-06-22T06:27:09;5.13;;;4.10;;
17648;SDS011;8943;51.110;-4.158;2023-06-22T06:29:40;7.33;;;4.13;;
17648;SDS011;8943;51.110;-4.158;2023-06-22T06:32:10;5.90;;;4.13;;
17648;SDS011;8943;51.110;-4.158;2023-06-22T06:34:52;7.87;;;4.50;;
17648;SDS011;8943;51.110;-4.158;2023-06-22T06:37:23;4.47;;;3.70;;
17648;SDS011;8943;51.110;-4.158;2023-06-22T06:39:52;5.47;;;3.97;;
17648;SDS011;8943;51.110;-4.158;2023-06-22T06:42:24;6.07;;;4.23;;
17648;SDS011;8943;51.110;-4.158;2023-06-22T06:44:55;7.00;;;3.90;;
17648;SDS011;8943;51.110;-4.158;2023-06-22T06:47:27;6.60;;;4.33;;
17648;SDS011;8943;51.110;-4.158;2023-06-22T06:49:56;5.90;;;4.13;;
17648;SDS011;8943;51.110;-4.158;2023-06-22T06:52:39;5.40;;;4.10;;
17648;SDS011;8943;51.110;-4.158;2023-06-22T06:55:11;7.87;;;4.23;;
17648;SDS011;8943;51.110;-4.158;2023-06-22T06:58:07;4.33;;;3.93;;
17648;SDS011;8943;51.110;-4.158;2023-06-22T07:01:06;7.10;;;4.40;;
17648;SDS011;8943;51.110;-4.158;2023-06-22T07:04:05;4.20;;;3.60;;
17648;SDS011;8943;51.110;-4.158;2023-06-22T07:06:43;5.17;;;4.67;;
17648;SDS011;8943;51.110;-4.158;2023-06-22T07:12:48;7.13;;;4.43;;
17648;SDS011;8943;51.110;-4.158;2023-06-22T07:15:16;5.30;;;4.63;;
17648;SDS011;8943;51.110;-4.158;2023-06-22T07:17:46;5.63;;;4.17;;
17648;SDS011;8943;51.110;-4.158;2023-06-22T07:20:16;4.93;;;3.90;;
17648;SDS011;8943;51.110;-4.158;2023-06-22T07:22:46;5.57;;;4.20;;
17648;SDS011;8943;51.110;-4.158;2023-06-22T07:25:19;6.90;;;4.00;;
17648;SDS011;8943;51.110;-4.158;2023-06-22T07:27:58;5.20;;;3.90;;
17648;SDS011;8943;51.110;-4.158;2023-06-22T07:30:30;4.83;;;3.80;;
17648;SDS011;8943;51.110;-4.158;2023-06-22T07:33:00;7.07;;;4.80;;
17648;SDS011;8943;51.110;-4.158;2023-06-22T07:35:37;4.67;;;4.07;;
17648;SDS011;8943;51.110;-4.158;2023-06-22T07:38:07;6.33;;;4.50;;
17648;SDS011;8943;51.110;-4.158;2023-06-22T07:40:52;5.60;;;5.10;;
17648;SDS011;8943;51.110;-4.158;2023-06-22T07:46:39;6.00;;;5.20;;
17648;SDS011;8943;51.110;-4.158;2023-06-22T07:49:27;6.37;;;4.17;;
17648;SDS011;8943;51.110;-4.158;2023-06-22T07:52:25;4.77;;;3.67;;
17648;SDS011;8943;51.110;-4.158;2023-06-22T07:55:20;4.50;;;4.10;;
17648;SDS011;8943;51.110;-4.158;2023-06-22T07:58:14;7.80;;;3.50;;
17648;SDS011;8943;51.110;-4.158;2023-06-22T08:09:50;3.47;;;2.60;;
17648;SDS011;8943;51.110;-4.158;2023-06-22T08:12:29;6.63;;;2.97;;
17648;SDS011;8943;51.110;-4.158;2023-06-22T08:15:13;5.27;;;2.97;;
17648;SDS011;8943;51.110;-4.158;2023-06-22T08:17:45;3.20;;;2.17;;
17648;SDS011;8943;51.110;-4.158;2023-06-22T08:20:14;5.57;;;2.10;;
17648;SDS011;8943;51.110;-4.158;2023-06-22T08:22:52;3.00;;;2.57;;
17648;SDS011;8943;51.110;-4.158;2023-06-22T08:25:24;4.23;;;2.23;;
17648;SDS011;8943;51.110;-4.158;2023-06-22T08:27:59;4.00;;;2.13;;
17648;SDS011;8943;51.110;-4.158;2023-06-22T08:37:15;2.23;;;2.03;;
17648;SDS011;8943;51.110;-4.158;2023-06-22T08:40:02;3.87;;;2.17;;
17648;SDS011;8943;51.110;-4.158;2023-06-22T08:42:40;2.77;;;1.90;;
17648;SDS011;8943;51.110;-4.158;2023-06-22T08:45:14;3.80;;;2.40;;
17648;SDS011;8943;51.110;-4.158;2023-06-22T08:48:08;2.83;;;1.87;;
17648;SDS011;8943;51.110;-4.158;2023-06-22T08:50:54;2.57;;;1.83;;
17648;SDS011;8943;51.110;-4.158;2023-06-22T08:56:56;2.27;;;1.90;;
17648;SDS011;8943;51.110;-4.158;2023-06-22T08:59:40;2.80;;;1.90;;
17648;SDS011;8943;51.110;-4.158;2023-06-22T09:02:09;3.07;;;2.10;;
17648;SDS011;8943;51.110;-4.158;2023-06-22T09:27:48;3.43;;;1.90;;
17648;SDS011;8943;51.110;-4.158;2023-06-22T09:30:18;1.90;;;1.57;;
17648;SDS011;8943;51.110;-4.158;2023-06-22T09:32:55;3.17;;;2.00;;
17648;SDS011;8943;51.110;-4.158;2023-06-22T09:35:27;3.30;;;1.70;;
17648;SDS011;8943;51.110;-4.158;2023-06-22T09:37:58;3.80;;;2.23;;
17648;SDS011;8943;51.110;-4.158;2023-06-22T09:40:29;4.83;;;2.00;;
17648;SDS011;8943;51.110;-4.158;2023-06-22T09:43:01;4.20;;;1.93;;
17648;SDS011;8943;51.110;-4.158;2023-06-22T09:45:30;2.53;;;1.90;;
17648;SDS011;8943;51.110;-4.158;2023-06-22T09:48:01;2.90;;;2.17;;
17648;SDS011;8943;51.110;-4.158;2023-06-22T09:51:16;2.80;;;2.00;;
17648;SDS011;8943;51.110;-4.158;2023-06-22T09:53:46;2.17;;;1.97;;
17648;SDS011;8943;51.110;-4.158;2023-06-22T09:59:08;3.33;;;2.40;;
17648;SDS011;8943;51.110;-4.158;2023-06-22T10:01:44;3.07;;;1.93;;
17648;SDS011;8943;51.110;-4.158;2023-06-22T10:04:16;3.70;;;2.10;;
17648;SDS011;8943;51.110;-4.158;2023-06-22T10:06:45;3.87;;;2.10;;
17648;SDS011;8943;51.110;-4.158;2023-06-22T10:09:14;2.20;;;1.80;;
17648;SDS011;8943;51.110;-4.158;2023-06-22T10:14:43;2.90;;;2.10;;
17648;SDS011;8943;51.110;-4.158;2023-06-22T10:17:15;3.27;;;1.93;;
17648;SDS011;8943;51.110;-4.158;2023-06-22T10:19:44;4.43;;;2.00;;
17648;SDS011;8943;51.110;-4.158;2023-06-22T10:22:16;2.83;;;2.13;;
17648;SDS011;8943;51.110;-4.158;2023-06-22T10:24:46;3.67;;;2.00;;
17648;SDS011;8943;51.110;-4.158;2023-06-22T10:27:18;3.20;;;1.90;;
17648;SDS011;8943;51.110;-4.158;2023-06-22T10:29:50;3.37;;;1.90;;
17648;SDS011;8943;51.110;-4.158;2023-06-22T10:35:09;4.30;;;1.90;;
17648;SDS011;8943;51.110;-4.158;2023-06-22T10:37:40;2.60;;;1.60;;
17648;SDS011;8943;51.110;-4.158;2023-06-22T10:40:14;2.13;;;1.33;;
17648;SDS011;8943;51.110;-4.158;2023-06-22T10:42:50;2.53;;;1.70;;
17648;SDS011;8943;51.110;-4.158;2023-06-22T10:45:23;4.27;;;1.50;;
17648;SDS011;8943;51.110;-4.158;2023-06-22T10:47:52;1.90;;;1.60;;
17648;SDS011;8943;51.110;-4.158;2023-06-22T10:50:22;3.57;;;1.73;;
17648;SDS011;8943;51.110;-4.158;2023-06-22T10:55:35;2.53;;;1.60;;
17648;SDS011;8943;51.110;-4.158;2023-06-22T10:58:20;2.10;;;1.50;;
17648;SDS011;8943;51.110;-4.158;2023-06-22T11:00:51;1.90;;;1.47;;
17648;SDS011;8943;51.110;-4.158;2023-06-22T11:03:22;2.60;;;1.47;;
17648;SDS011;8943;51.110;-4.158;2023-06-22T11:05:51;3.23;;;2.00;;
17648;SDS011;8943;51.110;-4.158;2023-06-22T11:08:31;2.03;;;1.60;;
17648;SDS011;8943;51.110;-4.158;2023-06-22T11:11:00;2.17;;;1.60;;
17648;SDS011;8943;51.110;-4.158;2023-06-22T11:13:29;3.10;;;1.60;;
17648;SDS011;8943;51.110;-4.158;2023-06-22T11:16:05;3.00;;;1.70;;
17648;SDS011;8943;51.110;-4.158;2023-06-22T11:18:40;4.57;;;1.53;;
17648;SDS011;8943;51.110;-4.158;2023-06-22T11:21:11;2.10;;;1.30;;
17648;SDS011;8943;51.110;-4.158;2023-06-22T11:23:45;2.83;;;1.60;;
17648;SDS011;8943;51.110;-4.158;2023-06-22T11:26:16;1.77;;;1.50;;
17648;SDS011;8943;51.110;-4.158;2023-06-22T11:28:45;2.63;;;1.53;;
17648;SDS011;8943;51.110;-4.158;2023-06-22T11:31:33;2.00;;;1.30;;
17648;SDS011;8943;51.110;-4.158;2023-06-22T11:34:06;2.37;;;1.60;;
17648;SDS011;8943;51.110;-4.158;2023-06-22T11:36:50;2.73;;;1.47;;
17648;SDS011;8943;51.110;-4.158;2023-06-22T11:39:19;2.00;;;1.10;;
17648;SDS011;8943;51.110;-4.158;2023-06-22T11:42:05;1.73;;;1.20;;
17648;SDS011;8943;51.110;-4.158;2023-06-22T11:44:37;1.93;;;1.60;;
17648;SDS011;8943;51.110;-4.158;2023-06-22T11:47:14;1.33;;;1.10;;
17648;SDS011;8943;51.110;-4.158;2023-06-22T11:49:56;2.37;;;1.50;;
17648;SDS011;8943;51.110;-4.158;2023-06-22T11:52:25;3.03;;;1.27;;
17648;SDS011;8943;51.110;-4.158;2023-06-22T11:54:59;1.50;;;1.30;;
17648;SDS011;8943;51.110;-4.158;2023-06-22T11:57:57;2.10;;;1.30;;
17648;SDS011;8943;51.110;-4.158;2023-06-22T12:00:35;1.47;;;1.37;;
17648;SDS011;8943;51.110;-4.158;2023-06-22T12:03:18;2.07;;;1.43;;
17648;SDS011;8943;51.110;-4.158;2023-06-22T12:05:55;2.90;;;1.60;;
17648;SDS011;8943;51.110;-4.158;2023-06-22T12:08:52;3.00;;;1.47;;
17648;SDS011;8943;51.110;-4.158;2023-06-22T12:11:45;1.63;;;1.20;;
17648;SDS011;8943;51.110;-4.158;2023-06-22T12:14:19;1.30;;;1.20;;
17648;SDS011;8943;51.110;-4.158;2023-06-22T12:17:07;2.67;;;1.80;;
17648;SDS011;8943;51.110;-4.158;2023-06-22T12:23:08;2.47;;;1.57;;
17648;SDS011;8943;51.110;-4.158;2023-06-22T12:25:55;2.00;;;1.30;;
17648;SDS011;8943;51.110;-4.158;2023-06-22T12:28:49;3.00;;;1.67;;
17648;SDS011;8943;51.110;-4.158;2023-06-22T12:31:23;4.03;;;1.67;;
17648;SDS011;8943;51.110;-4.158;2023-06-22T12:34:21;1.80;;;1.20;;
17648;SDS011;8943;51.110;-4.158;2023-06-22T12:37:04;3.17;;;1.27;;
17648;SDS011;8943;51.110;-4.158;2023-06-22T12:39:36;1.43;;;1.13;;
17648;SDS011;8943;51.110;-4.158;2023-06-22T12:42:05;1.30;;;1.10;;
17648;SDS011;8943;51.110;-4.158;2023-06-22T12:44:39;1.70;;;1.20;;
17648;SDS011;8943;51.110;-4.158;2023-06-22T12:47:13;2.10;;;1.37;;
17648;SDS011;8943;51.110;-4.158;2023-06-22T12:49:44;2.17;;;1.30;;
17648;SDS011;8943;51.110;-4.158;2023-06-22T12:52:24;3.23;;;1.27;;
17648;SDS011;8943;51.110;-4.158;2023-06-22T12:54:55;3.00;;;1.47;;
17648;SDS011;8943;51.110;-4.158;2023-06-22T13:00:55;1.30;;;1.10;;
17648;SDS011;8943;51.110;-4.158;2023-06-22T13:03:41;1.20;;;1.10;;
17648;SDS011;8943;51.110;-4.158;2023-06-22T13:06:27;3.10;;;1.40;;
17648;SDS011;8943;51.110;-4.158;2023-06-22T13:08:58;2.93;;;1.30;;
17648;SDS011;8943;51.110;-4.158;2023-06-22T13:11:48;2.58;;;1.23;;
17648;SDS011;8943;51.110;-4.158;2023-06-22T13:31:50;12.65;;;2.75;;
17648;SDS011;8943;51.110;-4.158;2023-06-22T13:37:22;1.10;;;1.00;;
17648;SDS011;8943;51.110;-4.158;2023-06-22T13:52:11;3.83;;;1.08;;
17648;SDS011;8943;51.110;-4.158;2023-06-22T13:54:46;1.17;;;1.08;;
17648;SDS011;8943;51.110;-4.158;2023-06-22T13:57:25;1.40;;;1.10;;
17648;SDS011;8943;51.110;-4.158;2023-06-22T14:44:15;2.70;;;1.20;;
17648;SDS011;8943;51.110;-4.158;2023-06-22T14:46:55;1.50;;;1.08;;
17648;SDS011;8943;51.110;-4.158;2023-06-22T14:52:21;1.55;;;1.10;;
17648;SDS011;8943;51.110;-4.158;2023-06-22T15:13:27;1.20;;;0.90;;
17648;SDS011;8943;51.110;-4.158;2023-06-22T15:16:01;2.08;;;1.20;;
17648;SDS011;8943;51.110;-4.158;2023-06-22T15:18:31;1.10;;;0.90;;
17648;SDS011;8943;51.110;-4.158;2023-06-22T15:21:24;1.58;;;1.15;;
17648;SDS011;8943;51.110;-4.158;2023-06-22T15:24:13;1.88;;;1.10;;
17648;SDS011;8943;51.110;-4.158;2023-06-22T15:26:48;2.42;;;1.10;;
17648;SDS011;8943;51.110;-4.158;2023-06-22T15:29:29;1.77;;;1.05;;
17648;SDS011;8943;51.110;-4.158;2023-06-22T15:32:02;1.45;;;1.20;;
17648;SDS011;8943;51.110;-4.158;2023-06-22T15:34:30;1.70;;;0.75;;
17648;SDS011;8943;51.110;-4.158;2023-06-22T15:39:43;1.25;;;0.90;;
17648;SDS011;8943;51.110;-4.158;2023-06-22T15:42:16;2.33;;;1.10;;
17648;SDS011;8943;51.110;-4.158;2023-06-22T15:51:10;1.67;;;1.10;;
17648;SDS011;8943;51.110;-4.158;2023-06-22T15:53:54;2.35;;;1.40;;
17648;SDS011;8943;51.110;-4.158;2023-06-22T15:56:40;2.40;;;1.30;;
17648;SDS011;8943;51.110;-4.158;2023-06-22T16:02:01;1.52;;;1.40;;
17648;SDS011;8943;51.110;-4.158;2023-06-22T16:04:43;1.60;;;1.23;;
17648;SDS011;8943;51.110;-4.158;2023-06-22T16:13:30;1.95;;;1.27;;
17648;SDS011;8943;51.110;-4.158;2023-06-22T16:16:45;2.70;;;1.90;;
17648;SDS011;8943;51.110;-4.158;2023-06-22T16:19:37;1.95;;;1.83;;
17648;SDS011;8943;51.110;-4.158;2023-06-22T16:22:06;1.60;;;1.50;;
17648;SDS011;8943;51.110;-4.158;2023-06-22T16:24:46;2.25;;;1.80;;
17648;SDS011;8943;51.110;-4.158;2023-06-22T16:42:16;2.33;;;1.95;;
17648;SDS011;8943;51.110;-4.158;2023-06-22T16:51:05;3.38;;;2.08;;
17648;SDS011;8943;51.110;-4.158;2023-06-22T16:54:03;2.22;;;1.92;;
17648;SDS011;8943;51.110;-4.158;2023-06-22T17:09:13;2.60;;;2.00;;
17648;SDS011;8943;51.110;-4.158;2023-06-22T17:18:30;2.03;;;1.88;;
17648;SDS011;8943;51.110;-4.158;2023-06-22T17:21:03;2.30;;;2.10;;
17648;SDS011;8943;51.110;-4.158;2023-06-22T17:23:34;3.25;;;2.47;;
17648;SDS011;8943;51.110;-4.158;2023-06-22T17:26:10;3.30;;;2.45;;
17648;SDS011;8943;51.110;-4.158;2023-06-22T17:31:23;3.13;;;2.67;;
17648;SDS011;8943;51.110;-4.158;2023-06-22T17:33:54;2.67;;;2.47;;
17648;SDS011;8943;51.110;-4.158;2023-06-22T17:36:28;2.55;;;2.30;;
17648;SDS011;8943;51.110;-4.158;2023-06-22T17:39:31;1.45;;;1.35;;
17648;SDS011;8943;51.110;-4.158;2023-06-22T17:42:29;2.95;;;2.53;;
17648;SDS011;8943;51.110;-4.158;2023-06-22T17:48:12;2.55;;;2.35;;
17648;SDS011;8943;51.110;-4.158;2023-06-22T18:04:39;4.90;;;2.42;;
17648;SDS011;8943;51.110;-4.158;2023-06-22T18:07:13;2.53;;;2.33;;
17648;SDS011;8943;51.110;-4.158;2023-06-22T18:10:02;3.13;;;2.30;;
17648;SDS011;8943;51.110;-4.158;2023-06-22T18:12:35;3.20;;;2.50;;
17648;SDS011;8943;51.110;-4.158;2023-06-22T18:15:07;2.50;;;2.30;;
17648;SDS011;8943;51.110;-4.158;2023-06-22T18:17:38;3.78;;;2.60;;
17648;SDS011;8943;51.110;-4.158;2023-06-22T18:24:04;2.75;;;2.55;;
17648;SDS011;8943;51.110;-4.158;2023-06-22T18:26:39;2.38;;;2.15;;
17648;SDS011;8943;51.110;-4.158;2023-06-22T18:29:09;2.92;;;2.55;;
17648;SDS011;8943;51.110;-4.158;2023-06-22T18:31:47;2.97;;;2.30;;
17648;SDS011;8943;51.110;-4.158;2023-06-22T18:34:18;2.22;;;1.92;;
17648;SDS011;8943;51.110;-4.158;2023-06-22T18:36:48;2.55;;;2.35;;
17648;SDS011;8943;51.110;-4.158;2023-06-22T18:39:21;3.10;;;2.53;;
17648;SDS011;8943;51.110;-4.158;2023-06-22T18:41:54;2.97;;;2.13;;
17648;SDS011;8943;51.110;-4.158;2023-06-22T18:44:24;2.72;;;2.33;;
17648;SDS011;8943;51.110;-4.158;2023-06-22T18:46:56;2.80;;;2.42;;
